Terminal Aerodrome Forecast
Issued by NWS

Home | Current Version | Previous Version | Text Only | Print | Product List | Glossary On
Versions: 1 2 3 4 5 6 7 8 9 10 11 12 13 14 15 16 17 18 19 20 21 22 23 24 25 26 27 28 29 30 31
000
FTUS46 KOTX 242320
TAFCOE
TAF
KCOE 242320Z 2500/2524 26008KT P6SM SCT050 OVC070
     FM250200 20008KT P6SM SCT060
     FM250400 19006KT P6SM SKC
     FM252000 25010G18KT P6SM FEW060
      AMD LTD TO CLD VIS AND WIND=

USA.gov is the U.S. government's official web portal to all federal, state and local government web resources and services.